createdAt,value
2022-10-12T00:00:32.649Z,0.00
2022-10-12T00:01:32.661Z,0.00
2022-10-12T00:02:32.560Z,0.00
2022-10-12T00:03:32.496Z,0.00
2022-10-12T00:04:32.445Z,0.00
2022-10-12T00:05:32.401Z,0.00
2022-10-12T00:06:32.348Z,0.00
2022-10-12T00:07:32.298Z,0.00
2022-10-12T00:08:32.246Z,0.00
2022-10-12T00:09:32.197Z,0.00
2022-10-12T00:10:32.146Z,0.00
2022-10-12T00:11:32.099Z,0.00
2022-10-12T00:12:32.057Z,0.00
2022-10-12T00:13:32.011Z,0.00
2022-10-12T00:14:31.950Z,0.00
2022-10-12T00:15:31.898Z,0.00
2022-10-12T00:16:31.852Z,0.00
2022-10-12T00:17:31.798Z,0.00
2022-10-12T00:18:31.766Z,0.00
2022-10-12T00:19:31.700Z,0.00
2022-10-12T00:20:31.651Z,0.00
2022-10-12T00:21:31.599Z,0.00
2022-10-12T00:22:31.553Z,0.00
2022-10-12T00:23:31.507Z,0.00
2022-10-12T00:24:31.453Z,0.00
2022-10-12T00:25:31.402Z,0.00
2022-10-12T00:26:31.352Z,0.00
2022-10-12T00:27:31.301Z,0.00
2022-10-12T00:28:31.334Z,0.00
2022-10-12T00:29:31.200Z,0.00
2022-10-12T00:30:31.153Z,0.00
2022-10-12T00:31:31.103Z,0.00
2022-10-12T00:32:31.052Z,0.00
2022-10-12T00:33:31.000Z,0.00
2022-10-12T00:34:30.970Z,0.00
2022-10-12T00:35:30.899Z,0.00
2022-10-12T00:36:30.854Z,0.00
2022-10-12T00:37:30.808Z,0.00
2022-10-12T00:38:30.754Z,0.00
2022-10-12T00:39:30.701Z,0.00
2022-10-12T00:40:30.658Z,0.00
2022-10-12T00:41:30.611Z,0.00
2022-10-12T00:42:30.555Z,0.00
2022-10-12T00:43:30.507Z,0.00
2022-10-12T00:44:30.454Z,0.00
2022-10-12T00:45:30.406Z,0.00
2022-10-12T00:46:30.357Z,0.00
2022-10-12T00:47:30.302Z,0.00
2022-10-12T00:48:30.254Z,0.00
2022-10-12T00:49:30.205Z,0.00
2022-10-12T00:50:30.173Z,0.00
2022-10-12T00:51:30.101Z,0.00
2022-10-12T00:52:30.057Z,0.00
2022-10-12T00:53:30.004Z,0.00
2022-10-12T00:54:29.956Z,0.00
2022-10-12T00:55:29.902Z,0.00
2022-10-12T00:56:29.855Z,0.00
2022-10-12T00:57:29.810Z,0.00
2022-10-12T00:58:29.756Z,0.00
2022-10-12T00:59:29.703Z,0.00
2022-10-12T01:00:29.721Z,0.00
2022-10-12T01:01:29.603Z,0.00
2022-10-12T01:02:29.556Z,0.00
2022-10-12T01:03:29.504Z,0.00
2022-10-12T01:04:29.457Z,0.00
2022-10-12T01:05:29.402Z,0.00
2022-10-12T01:06:29.374Z,0.00
2022-10-12T01:07:29.303Z,0.00
2022-10-12T01:08:29.253Z,0.00
2022-10-12T01:09:29.205Z,0.00
2022-10-12T01:11:29.104Z,0.00
2022-10-12T01:12:29.053Z,0.00
2022-10-12T01:13:29.005Z,0.00
2022-10-12T01:14:28.955Z,0.00
2022-10-12T01:15:28.910Z,0.00
2022-10-12T01:16:28.857Z,0.00
2022-10-12T01:17:28.805Z,0.00
2022-10-12T01:18:28.753Z,0.00
2022-10-12T01:19:28.706Z,0.00
2022-10-12T01:20:28.653Z,0.00
2022-10-12T01:21:28.605Z,0.00
2022-10-12T01:22:28.571Z,0.00
2022-10-12T01:23:28.505Z,0.00
2022-10-12T01:24:28.456Z,0.00
2022-10-12T01:25:28.405Z,0.00
2022-10-12T01:26:28.354Z,0.00
2022-10-12T01:27:28.302Z,0.00
2022-10-12T01:28:28.321Z,0.00
2022-10-12T01:29:28.209Z,0.00
2022-10-12T01:30:28.153Z,0.00
2022-10-12T01:31:32.386Z,0.00
2022-10-12T01:32:28.052Z,0.00
2022-10-12T01:33:28.006Z,0.00
2022-10-12T01:34:27.953Z,0.00
2022-10-12T01:35:27.903Z,0.00
2022-10-12T01:36:27.850Z,0.00
2022-10-12T01:37:27.805Z,0.00
2022-10-12T01:38:27.769Z,0.00
2022-10-12T01:39:27.703Z,0.00
2022-10-12T01:40:27.652Z,0.00
2022-10-12T01:41:27.605Z,0.00
2022-10-12T01:42:27.553Z,0.00
2022-10-12T01:43:27.502Z,0.00
2022-10-12T01:44:27.455Z,0.00
2022-10-12T01:45:27.402Z,0.00
2022-10-12T01:46:27.351Z,0.00
2022-10-12T01:47:27.301Z,0.00
2022-10-12T01:48:27.251Z,0.00
2022-10-12T01:49:27.202Z,0.00
2022-10-12T01:50:27.150Z,0.00
2022-10-12T01:51:27.101Z,0.00
2022-10-12T01:52:27.048Z,0.00
2022-10-12T01:53:27.002Z,0.00
2022-10-12T01:54:26.967Z,0.00
2022-10-12T01:55:26.902Z,0.00
2022-10-12T01:56:26.847Z,0.00
2022-10-12T01:57:26.801Z,0.00
2022-10-12T01:58:26.748Z,0.00
2022-10-12T01:59:26.698Z,0.00
2022-10-12T02:00:26.648Z,0.00
2022-10-12T02:01:26.654Z,0.00
2022-10-12T02:02:26.548Z,0.00
2022-10-12T02:03:26.497Z,0.00
2022-10-12T02:04:26.448Z,0.00
2022-10-12T02:05:26.398Z,0.00
2022-10-12T02:06:26.348Z,0.00
2022-10-12T02:07:26.301Z,0.00
2022-10-12T02:08:26.245Z,0.00
2022-10-12T02:09:26.200Z,0.00
2022-10-12T02:10:26.166Z,0.00
2022-10-12T02:11:26.096Z,0.00
2022-10-12T02:12:26.044Z,0.00
2022-10-12T02:13:26.000Z,0.00
2022-10-12T02:14:25.948Z,0.00
2022-10-12T02:15:25.896Z,0.00
2022-10-12T02:16:25.845Z,0.00
2022-10-12T02:17:25.796Z,0.00
2022-10-12T02:19:09.127Z,0.00
2022-10-12T02:20:09.073Z,0.00
2022-10-12T02:21:58.527Z,0.00
2022-10-12T02:22:58.475Z,0.00
2022-10-12T02:23:58.423Z,0.00
2022-10-12T02:24:58.386Z,0.00
2022-10-12T02:25:58.340Z,0.00
2022-10-12T02:26:58.282Z,0.00
2022-10-12T02:27:58.431Z,0.00
2022-10-12T02:28:58.177Z,0.00
2022-10-12T02:29:58.127Z,0.00
2022-10-12T02:30:58.077Z,0.00
2022-10-12T02:31:58.031Z,0.00
2022-10-12T02:32:57.981Z,0.00
2022-10-12T02:33:57.930Z,0.00
2022-10-12T02:35:57.837Z,0.00
2022-10-12T02:36:57.786Z,0.00
2022-10-12T02:37:57.734Z,0.00
2022-10-12T02:38:57.686Z,0.00
2022-10-12T02:39:57.644Z,0.00
2022-10-12T02:40:57.585Z,0.00
2022-10-12T02:41:57.562Z,0.00
2022-10-12T02:43:09.854Z,0.00
2022-10-12T02:43:57.447Z,0.00
2022-10-12T02:44:57.393Z,0.00
2022-10-12T02:45:57.346Z,0.00
2022-10-12T02:46:57.301Z,0.00
2022-10-12T02:47:57.248Z,0.00
2022-10-12T02:48:57.203Z,0.00
2022-10-12T02:49:57.148Z,0.00
2022-10-12T02:50:57.102Z,0.00
2022-10-12T02:51:57.052Z,0.00
2022-10-12T02:52:57.004Z,0.00
2022-10-12T02:53:56.962Z,0.00
2022-10-12T02:54:56.903Z,0.00
2022-10-12T02:55:56.861Z,0.00
2022-10-12T02:56:56.806Z,0.00
2022-10-12T02:57:56.777Z,0.00
2022-10-12T02:58:56.709Z,0.00
2022-10-12T02:59:56.669Z,0.00
2022-10-12T03:00:56.645Z,0.00
2022-10-12T03:01:56.567Z,0.00
2022-10-12T03:02:56.519Z,0.00
2022-10-12T03:03:56.469Z,0.00
2022-10-12T03:04:56.420Z,0.00
2022-10-12T03:05:56.373Z,0.00
2022-10-12T03:06:56.324Z,0.00
2022-10-12T03:07:56.277Z,0.00
2022-10-12T03:08:56.221Z,0.00
2022-10-12T03:09:56.174Z,0.00
2022-10-12T03:10:56.331Z,0.00
2022-10-12T03:11:56.086Z,0.00
2022-10-12T03:12:56.039Z,0.00
2022-10-12T03:13:56.004Z,0.00
2022-10-12T03:14:55.937Z,0.00
2022-10-12T03:15:55.888Z,0.00
2022-10-12T03:16:55.836Z,0.00
2022-10-12T03:17:55.788Z,0.00
2022-10-12T03:18:55.735Z,0.00
2022-10-12T03:19:55.699Z,0.00
2022-10-12T03:20:55.646Z,0.00
2022-10-12T03:21:55.597Z,0.00
2022-10-12T03:22:55.543Z,0.00
2022-10-12T03:23:55.497Z,0.00
2022-10-12T03:24:55.445Z,0.00
2022-10-12T03:25:55.401Z,0.00
2022-10-12T03:26:55.347Z,0.00
2022-10-12T03:27:55.308Z,0.00
2022-10-12T03:28:55.297Z,0.00
2022-10-12T03:29:55.222Z,0.00
2022-10-12T03:30:55.154Z,0.00
2022-10-12T03:31:55.107Z,0.00
2022-10-12T03:32:55.057Z,0.00
2022-10-12T03:33:55.007Z,0.00
2022-10-12T03:34:54.964Z,0.00
2022-10-12T03:35:54.910Z,0.00
2022-10-12T03:36:54.861Z,0.00
2022-10-12T03:37:54.813Z,0.00
2022-10-12T03:38:54.788Z,0.00
2022-10-12T03:39:54.716Z,0.00
2022-10-12T03:40:54.668Z,0.00
2022-10-12T03:41:54.619Z,0.00
2022-10-12T03:42:54.567Z,0.00
2022-10-12T03:43:54.528Z,0.00
2022-10-12T03:44:54.471Z,0.00
2022-10-12T03:45:54.445Z,0.00
2022-10-12T03:46:54.380Z,0.00
2022-10-12T03:47:54.331Z,0.00
2022-10-12T03:48:54.280Z,0.00
2022-10-12T03:49:54.243Z,0.00
2022-10-12T03:50:54.186Z,0.00
2022-10-12T03:51:54.130Z,0.00
2022-10-12T03:52:54.084Z,0.00
2022-10-12T03:53:54.051Z,0.00
2022-10-12T04:01:42.101Z,0.00
2022-10-12T04:02:41.994Z,0.00
2022-10-12T04:03:41.942Z,0.00
2022-10-12T04:04:41.894Z,0.00
2022-10-12T04:05:41.844Z,0.00
2022-10-12T04:06:41.795Z,0.00
2022-10-12T04:07:41.743Z,0.00
2022-10-12T04:08:41.694Z,0.00
2022-10-12T04:09:41.663Z,0.00
2022-10-12T04:10:41.596Z,0.00
2022-10-12T04:11:41.544Z,0.00
2022-10-12T04:12:41.499Z,0.00
2022-10-12T04:13:41.445Z,0.00
2022-10-12T04:14:41.396Z,0.00
2022-10-12T04:15:41.353Z,0.00
2022-10-12T04:16:41.296Z,0.00
2022-10-12T04:17:41.680Z,0.00
2022-10-12T04:18:41.195Z,0.00
2022-10-12T04:19:41.145Z,0.00
2022-10-12T04:20:41.095Z,0.00
2022-10-12T04:21:41.044Z,0.00
2022-10-12T04:22:40.996Z,0.00
2022-10-12T04:23:40.947Z,0.00
2022-10-12T04:24:40.896Z,0.00
2022-10-12T04:25:40.843Z,0.00
2022-10-12T04:26:40.798Z,0.00
2022-10-12T04:27:41.147Z,0.00
2022-10-12T04:28:40.764Z,0.00
2022-10-12T04:29:40.646Z,0.00
2022-10-12T04:30:40.596Z,0.00
2022-10-12T04:31:40.544Z,0.00
2022-10-12T04:32:40.496Z,0.00
2022-10-12T04:33:40.537Z,0.00
2022-10-12T04:34:40.396Z,0.00
2022-10-12T04:35:40.346Z,0.00
2022-10-12T04:36:40.299Z,0.00
2022-10-12T04:37:40.709Z,0.00
2022-10-12T04:38:40.199Z,0.00
2022-10-12T04:39:40.149Z,0.00
2022-10-12T04:40:40.096Z,0.00
2022-10-12T04:41:40.045Z,0.00
2022-10-12T04:42:39.997Z,0.00
2022-10-12T04:43:39.947Z,0.00
2022-10-12T04:44:39.899Z,0.00
2022-10-12T04:45:39.846Z,0.00
2022-10-12T04:46:39.798Z,0.00
2022-10-12T04:47:40.183Z,0.00
2022-10-12T04:48:39.700Z,0.00
2022-10-12T04:49:39.663Z,0.00
2022-10-12T04:50:39.596Z,0.00
2022-10-12T04:51:39.546Z,0.00
2022-10-12T04:52:39.497Z,0.00
2022-10-12T04:53:39.448Z,0.00
2022-10-12T04:54:39.400Z,0.00
2022-10-12T04:55:39.348Z,0.00
2022-10-12T04:56:40.607Z,0.00
2022-10-12T04:57:39.654Z,0.00
2022-10-12T04:58:39.199Z,0.00
2022-10-12T04:59:39.149Z,0.00
2022-10-12T05:00:39.111Z,0.00
2022-10-12T05:01:39.133Z,0.00
2022-10-12T05:02:39.016Z,0.00
2022-10-12T05:03:41.942Z,0.00
2022-10-12T05:04:38.903Z,0.00
2022-10-12T05:05:38.862Z,0.00
2022-10-12T05:06:38.796Z,0.00
2022-10-12T05:07:39.167Z,0.00
2022-10-12T05:08:38.697Z,0.00
2022-10-12T05:09:38.647Z,0.00
2022-10-12T05:10:38.600Z,0.00
2022-10-12T05:11:38.546Z,0.00
2022-10-12T05:12:38.904Z,0.00
2022-10-12T05:13:38.445Z,0.00
2022-10-12T05:14:38.401Z,0.00
2022-10-12T05:15:38.349Z,0.00
2022-10-12T05:16:38.296Z,0.00
2022-10-12T05:17:38.573Z,0.00
2022-10-12T05:18:38.197Z,0.00
2022-10-12T05:19:38.145Z,0.00
2022-10-12T05:20:38.100Z,0.00
2022-10-12T05:21:38.067Z,0.00
2022-10-12T05:22:37.996Z,0.00
2022-10-12T05:23:37.947Z,0.00
2022-10-12T05:24:37.897Z,0.00
2022-10-12T05:25:37.845Z,0.00
2022-10-12T05:26:37.796Z,0.00
2022-10-12T05:27:38.131Z,4.00
2022-10-12T05:28:41.072Z,4.00
2022-10-12T05:29:37.650Z,0.00
2022-10-12T05:30:37.596Z,4.00
2022-10-12T05:31:37.546Z,0.00
2022-10-12T05:32:37.866Z,4.00
2022-10-12T05:33:37.445Z,4.00
2022-10-12T05:34:37.398Z,8.00
2022-10-12T05:35:37.346Z,8.00
2022-10-12T05:36:37.296Z,8.00
2022-10-12T05:37:37.656Z,12.00
2022-10-12T05:38:37.198Z,12.00
2022-10-12T05:39:37.146Z,12.00
2022-10-12T05:40:37.096Z,16.00
2022-10-12T05:41:37.049Z,20.00
2022-10-12T05:42:37.273Z,24.00
2022-10-12T05:43:36.944Z,24.00
2022-10-12T05:44:36.899Z,28.00
2022-10-12T05:45:36.847Z,32.00
2022-10-12T05:46:36.798Z,36.00
2022-10-12T05:47:37.063Z,44.00
2022-10-12T05:48:36.697Z,48.00
2022-10-12T05:49:36.644Z,52.00
2022-10-12T05:50:36.599Z,60.00
2022-10-12T05:51:36.545Z,64.00
2022-10-12T05:52:36.866Z,72.00
2022-10-12T05:53:36.487Z,80.00
2022-10-12T05:54:36.397Z,88.00
2022-10-12T05:55:36.346Z,96.00
2022-10-12T05:56:36.297Z,100.00
2022-10-12T05:57:36.245Z,108.00
2022-10-12T05:58:36.196Z,116.00
2022-10-12T05:59:36.145Z,120.00
2022-10-12T06:00:36.095Z,132.00
2022-10-12T06:01:36.089Z,140.00
2022-10-12T06:02:36.326Z,152.00
2022-10-12T06:03:35.943Z,160.00
2022-10-12T06:04:35.895Z,176.00
2022-10-12T06:05:35.843Z,188.00
2022-10-12T06:06:35.795Z,196.00
2022-10-12T06:07:35.745Z,208.00
2022-10-12T06:08:35.696Z,220.00
2022-10-12T06:09:35.668Z,244.00
2022-10-12T06:10:35.679Z,252.00
2022-10-12T06:11:36.542Z,256.00
2022-10-12T06:12:35.839Z,268.00
2022-10-12T06:13:35.443Z,276.00
2022-10-12T06:14:35.397Z,280.00
2022-10-12T06:15:35.341Z,292.00
2022-10-12T06:16:35.291Z,300.00
2022-10-12T06:17:35.242Z,308.00
2022-10-12T06:18:35.193Z,320.00
2022-10-12T06:19:35.143Z,332.00
2022-10-12T06:20:35.092Z,348.00
2022-10-12T06:21:35.152Z,360.00
2022-10-12T06:22:35.023Z,376.00
2022-10-12T06:23:34.950Z,388.00
2022-10-12T06:24:34.894Z,404.00
2022-10-12T06:25:34.859Z,424.00
2022-10-12T06:26:34.791Z,440.00
2022-10-12T06:27:34.741Z,464.00
2022-10-12T06:28:34.746Z,484.00
2022-10-12T06:29:34.643Z,504.00
2022-10-12T06:30:34.591Z,520.00
2022-10-12T06:31:34.540Z,536.00
2022-10-12T06:32:34.489Z,544.00
2022-10-12T06:33:34.438Z,556.00
2022-10-12T06:34:34.389Z,568.00
2022-10-12T06:35:34.337Z,584.00
2022-10-12T06:36:34.291Z,596.00
2022-10-12T06:37:50.544Z,612.00
2022-10-12T06:38:34.195Z,628.00
2022-10-12T06:39:34.138Z,640.00
2022-10-12T06:40:34.089Z,652.00
2022-10-12T06:41:34.054Z,664.00
2022-10-12T06:42:33.987Z,676.00
2022-10-12T06:43:33.935Z,688.00
2022-10-12T06:44:33.885Z,700.00
2022-10-12T06:45:33.895Z,712.00
2022-10-12T06:46:33.789Z,724.00
2022-10-12T06:47:33.750Z,736.00
2022-10-12T06:48:33.686Z,748.00
2022-10-12T06:49:33.637Z,748.00
2022-10-12T06:50:33.592Z,744.00
2022-10-12T06:51:33.532Z,772.00
2022-10-12T06:52:33.495Z,820.00
2022-10-12T06:53:33.431Z,852.00
2022-10-12T06:54:33.383Z,856.00
2022-10-12T06:55:33.334Z,860.00
2022-10-12T06:56:33.284Z,868.00
2022-10-12T06:57:33.251Z,888.00
2022-10-12T06:58:33.186Z,952.00
2022-10-12T06:59:33.133Z,1000.00
2022-10-12T07:00:33.096Z,1024.00
2022-10-12T07:01:33.065Z,1044.00
2022-10-12T07:02:32.993Z,1084.00
2022-10-12T07:03:32.933Z,1160.00
2022-10-12T07:04:32.881Z,1160.00
2022-10-12T07:05:32.837Z,1392.00
2022-10-12T07:06:32.781Z,1724.00
2022-10-12T07:07:32.733Z,2016.00
2022-10-12T07:08:32.681Z,2024.00
2022-10-12T07:09:32.631Z,2376.00
2022-10-12T07:10:32.583Z,2484.00
2022-10-12T07:11:32.533Z,2576.00
2022-10-12T07:12:32.480Z,2636.00
2022-10-12T07:13:32.501Z,2752.00
2022-10-12T07:14:32.386Z,2932.00
2022-10-12T07:15:32.336Z,3108.00
2022-10-12T08:20:56.369Z,1264.00
2022-10-12T08:21:56.299Z,1352.00
2022-10-12T08:22:56.257Z,1524.00
2022-10-12T08:23:56.207Z,1616.00
2022-10-12T08:24:56.163Z,1600.00
2022-10-12T08:25:56.110Z,1612.00
2022-10-12T08:27:01.067Z,1568.00
2022-10-12T08:27:56.020Z,1568.00
2022-10-12T08:28:56.060Z,1584.00
2022-10-12T08:29:55.917Z,1532.00
2022-10-12T08:30:55.869Z,1480.00
2022-10-12T08:31:55.820Z,1456.00
2022-10-12T08:32:55.771Z,1480.00
2022-10-12T08:33:55.723Z,1472.00
2022-10-12T08:34:55.674Z,1500.00
2022-10-12T08:35:55.630Z,1516.00
2022-10-12T08:36:55.601Z,1580.00
2022-10-12T08:37:55.533Z,1612.00
2022-10-12T08:38:55.486Z,1492.00
2022-10-12T08:39:58.550Z,1508.00
2022-10-12T08:40:55.387Z,1568.00
2022-10-12T08:41:55.341Z,1616.00
2022-10-12T08:42:55.291Z,1604.00
2022-10-12T08:43:55.249Z,1688.00
2022-10-12T08:44:55.194Z,1644.00
2022-10-12T08:45:55.154Z,1612.00
2022-10-12T08:46:55.107Z,1644.00
2022-10-12T08:47:55.056Z,1672.00
2022-10-12T08:48:55.004Z,1744.00
2022-10-12T08:49:54.958Z,1788.00
2022-10-12T08:50:54.908Z,1728.00
2022-10-12T08:51:54.867Z,1712.00
2022-10-12T08:52:54.836Z,1684.00
2022-10-12T08:53:54.767Z,1692.00
2022-10-12T08:54:54.719Z,1828.00
2022-10-12T08:55:54.674Z,1936.00
2022-10-12T08:56:54.628Z,2092.00
2022-10-12T08:57:54.577Z,2156.00
2022-10-12T08:58:54.540Z,2196.00
2022-10-12T08:59:54.481Z,2216.00
2022-10-12T09:00:54.432Z,2296.00
2022-10-12T09:01:54.442Z,2360.00
2022-10-12T09:02:54.336Z,2456.00
2022-10-12T09:03:54.289Z,2516.00
2022-10-12T09:04:54.243Z,2512.00
2022-10-12T09:05:54.197Z,2500.00
2022-10-12T09:06:54.147Z,2308.00
2022-10-12T09:07:54.103Z,2352.00
2022-10-12T09:08:54.068Z,2404.00
2022-10-12T09:09:54.009Z,2364.00
2022-10-12T09:10:53.960Z,2308.00
2022-10-12T09:11:53.914Z,2320.00
2022-10-12T09:12:53.861Z,2324.00
2022-10-12T09:13:53.817Z,2412.00
2022-10-12T09:14:53.765Z,2808.00
2022-10-12T09:15:53.727Z,2872.00
2022-10-12T09:16:53.672Z,2836.00
2022-10-12T09:17:53.627Z,2776.00
2022-10-12T09:18:53.578Z,2752.00
2022-10-12T09:19:53.532Z,2708.00
2022-10-12T09:20:53.483Z,2540.00
2022-10-12T09:21:53.437Z,2532.00
2022-10-12T09:22:53.390Z,2448.00
2022-10-12T09:23:53.341Z,2332.00
2022-10-12T09:24:53.364Z,2244.00
2022-10-12T09:25:53.248Z,2192.00
2022-10-12T09:26:53.202Z,2200.00
2022-10-12T09:27:53.154Z,2044.00
2022-10-12T09:28:53.194Z,1836.00
2022-10-12T09:29:53.060Z,1792.00
2022-10-12T09:30:53.015Z,1804.00
2022-10-12T09:31:52.967Z,1868.00
2022-10-12T09:32:52.917Z,1972.00
2022-10-12T09:33:52.871Z,2052.00
2022-10-12T09:34:52.824Z,2092.00
2022-10-12T09:35:52.777Z,2148.00
2022-10-12T09:36:52.731Z,2156.00
2022-10-12T09:37:52.685Z,2096.00
2022-10-12T09:38:52.640Z,2064.00
2022-10-12T09:39:52.590Z,1988.00
2022-10-12T09:40:52.561Z,1932.00
2022-10-12T09:41:52.497Z,1856.00
2022-10-12T09:42:52.452Z,1896.00
2022-10-12T09:43:52.405Z,1916.00
2022-10-12T09:44:52.358Z,1908.00
2022-10-12T09:45:52.333Z,1928.00
2022-10-12T09:46:52.266Z,1896.00
2022-10-12T09:47:52.221Z,1868.00
2022-10-12T09:48:52.173Z,1928.00
2022-10-12T09:49:52.135Z,2048.00
2022-10-12T09:50:52.088Z,2064.00
2022-10-12T09:51:52.037Z,2028.00
2022-10-12T09:52:51.983Z,2072.00
2022-10-12T09:53:56.725Z,2000.00
2022-10-12T09:54:51.892Z,1960.00
2022-10-12T09:55:51.846Z,1908.00
2022-10-12T09:56:51.822Z,1864.00
2022-10-12T09:57:51.757Z,1808.00
2022-10-12T09:58:51.706Z,1728.00
2022-10-12T09:59:51.663Z,1692.00
2022-10-12T10:00:51.615Z,1608.00
2022-10-12T10:01:51.606Z,1564.00
2022-10-12T10:02:51.520Z,1520.00
2022-10-12T10:03:51.477Z,1524.00
2022-10-12T10:04:51.430Z,1392.00
2022-10-12T10:05:51.385Z,1360.00
2022-10-12T10:06:51.339Z,1320.00
2022-10-12T10:07:51.291Z,1292.00
2022-10-12T10:08:51.245Z,1272.00
2022-10-12T10:09:51.200Z,1208.00
2022-10-12T10:10:51.151Z,1180.00
2022-10-12T10:11:51.105Z,1140.00
2022-10-12T10:12:51.081Z,1188.00
2022-10-12T10:13:51.013Z,1220.00
2022-10-12T10:14:50.980Z,1244.00
2022-10-12T10:15:50.919Z,1244.00
2022-10-12T10:16:50.872Z,1260.00
2022-10-12T10:17:50.829Z,1284.00
2022-10-12T10:18:50.784Z,1276.00
2022-10-12T10:19:50.740Z,1268.00
2022-10-12T10:20:50.688Z,1260.00
2022-10-12T10:21:50.644Z,1256.00
2022-10-12T10:22:50.599Z,1256.00
2022-10-12T10:23:50.553Z,1252.00
2022-10-12T10:24:50.505Z,1260.00
2022-10-12T10:25:50.460Z,1252.00
2022-10-12T10:26:50.422Z,1236.00
2022-10-12T10:27:50.369Z,1264.00
2022-10-12T10:28:50.457Z,1280.00
2022-10-12T10:30:04.682Z,1280.00
2022-10-12T10:30:50.234Z,1248.00
2022-10-12T10:31:50.186Z,1196.00
2022-10-12T10:32:50.137Z,1236.00
2022-10-12T10:33:50.095Z,1232.00
2022-10-12T10:34:50.043Z,1216.00
2022-10-12T10:35:50.236Z,1180.00
2022-10-12T10:36:49.952Z,1168.00
2022-10-12T10:37:49.908Z,1164.00
2022-10-12T10:38:49.860Z,1152.00
2022-10-12T10:39:49.815Z,1184.00
2022-10-12T10:40:49.769Z,1188.00
2022-10-12T10:41:49.725Z,1196.00
2022-10-12T10:42:49.676Z,1192.00
2022-10-12T10:43:49.633Z,1184.00
2022-10-12T10:44:49.625Z,1180.00
2022-10-12T10:45:49.543Z,1176.00
2022-10-12T10:46:49.499Z,1160.00
2022-10-12T10:47:49.448Z,1136.00
2022-10-12T10:48:49.398Z,1196.00
2022-10-12T10:49:49.839Z,1204.00
2022-10-12T10:50:49.307Z,1268.00
2022-10-12T10:51:49.270Z,1284.00
2022-10-12T10:52:49.223Z,1292.00
2022-10-12T10:53:49.172Z,1300.00
2022-10-12T10:54:49.123Z,1304.00
2022-10-12T10:55:49.282Z,1312.00
2022-10-12T10:56:49.033Z,1324.00
2022-10-12T10:57:48.990Z,1332.00
2022-10-12T10:58:48.948Z,1340.00
2022-10-12T10:59:48.894Z,1344.00
2022-10-12T11:00:49.362Z,1328.00
2022-10-12T11:01:48.841Z,1332.00
2022-10-12T11:02:48.763Z,1304.00
2022-10-12T11:03:51.420Z,1328.00
2022-10-12T11:04:48.663Z,1344.00
2022-10-12T11:05:48.618Z,1388.00
2022-10-12T11:06:48.576Z,1456.00
2022-10-12T11:07:48.530Z,1488.00
2022-10-12T11:08:48.477Z,1544.00
2022-10-12T11:09:48.440Z,1620.00
2022-10-12T11:10:48.386Z,1668.00
2022-10-12T11:11:48.343Z,1732.00
2022-10-12T11:12:48.294Z,1764.00
2022-10-12T11:13:48.256Z,1796.00
2022-10-12T11:14:48.407Z,1828.00
2022-10-12T11:15:48.161Z,1852.00
2022-10-12T11:16:48.135Z,1876.00
2022-10-12T11:17:48.070Z,1900.00
2022-10-12T11:18:48.020Z,1952.00
2022-10-12T11:19:47.982Z,1980.00
2022-10-12T11:20:47.940Z,2032.00
2022-10-12T11:21:47.885Z,2108.00
2022-10-12T11:22:47.846Z,2096.00
2022-10-12T11:23:47.792Z,2104.00
2022-10-12T11:24:47.754Z,2116.00
2022-10-12T11:25:49.280Z,2120.00
2022-10-12T11:26:47.664Z,2160.00
2022-10-12T11:27:52.756Z,2204.00
2022-10-12T11:28:47.638Z,2236.00
2022-10-12T11:29:58.144Z,2200.00
2022-10-12T11:30:47.471Z,2196.00
2022-10-12T11:31:47.431Z,2252.00
2022-10-12T11:32:47.466Z,2300.00
2022-10-12T11:33:47.335Z,2368.00
2022-10-12T11:34:47.288Z,2444.00
2022-10-12T11:35:47.243Z,2480.00
2022-10-12T11:37:07.590Z,2516.00
2022-10-12T11:37:47.152Z,2556.00
2022-10-12T11:38:47.107Z,2600.00
2022-10-12T11:39:47.061Z,2648.00
2022-10-12T11:41:05.738Z,2696.00
2022-10-12T11:42:17.076Z,2700.00
2022-10-12T11:42:46.925Z,2756.00
2022-10-12T11:43:46.880Z,2768.00
2022-10-12T11:44:46.837Z,2768.00
2022-10-12T11:45:46.848Z,2784.00
2022-10-12T11:46:46.742Z,2792.00
2022-10-12T11:47:46.697Z,2800.00
2022-10-12T11:48:46.771Z,2824.00
2022-10-12T11:49:46.613Z,2796.00
2022-10-12T11:50:46.561Z,2860.00
2022-10-12T11:51:46.518Z,2836.00
2022-10-12T11:52:46.471Z,2804.00
2022-10-12T11:53:46.425Z,2824.00
2022-10-12T11:54:46.423Z,2780.00
2022-10-12T11:55:46.340Z,2756.00
2022-10-12T11:56:46.291Z,2720.00
2022-10-12T11:57:46.246Z,2732.00
2022-10-12T11:59:00.501Z,2652.00
2022-10-12T11:59:46.155Z,2640.00
2022-10-12T12:00:46.110Z,2644.00
2022-10-12T12:01:46.065Z,2608.00
2022-10-12T12:02:46.017Z,2572.00
2022-10-12T12:03:46.066Z,2552.00
2022-10-12T12:04:46.038Z,2572.00
2022-10-12T12:05:45.889Z,2536.00
2022-10-12T12:06:45.835Z,2508.00
2022-10-12T12:07:45.793Z,2516.00
2022-10-12T12:08:45.774Z,2528.00
2022-10-12T12:09:50.368Z,2552.00
2022-10-12T12:10:45.657Z,2576.00
2022-10-12T12:11:45.613Z,2480.00
2022-10-12T12:12:45.568Z,2468.00
2022-10-12T12:13:45.523Z,2428.00
2022-10-12T12:14:45.478Z,2416.00
2022-10-12T12:15:45.432Z,2388.00
2022-10-12T12:16:45.387Z,2428.00
2022-10-12T12:17:45.344Z,2512.00
2022-10-12T12:18:45.300Z,2596.00
2022-10-12T12:19:45.699Z,2568.00
2022-10-12T12:20:45.286Z,2520.00
2022-10-12T12:21:45.169Z,2424.00
2022-10-12T12:22:45.118Z,2360.00
2022-10-12T12:23:45.076Z,2288.00
2022-10-12T12:24:45.027Z,2264.00
2022-10-12T12:25:44.983Z,2288.00
2022-10-12T12:26:44.939Z,2320.00
2022-10-12T12:27:44.895Z,2320.00
2022-10-12T12:28:44.896Z,2284.00
2022-10-12T12:29:44.899Z,2272.00
2022-10-12T12:30:44.761Z,2292.00
2022-10-12T12:31:44.714Z,2228.00
2022-10-12T12:32:44.672Z,2180.00
2022-10-12T12:33:44.625Z,2200.00
2022-10-12T12:34:44.887Z,2236.00
2022-10-12T12:35:44.537Z,2296.00
2022-10-12T12:36:44.534Z,2336.00
2022-10-12T12:37:44.444Z,2340.00
2022-10-12T12:38:44.403Z,2360.00
2022-10-12T12:39:44.738Z,2400.00
2022-10-12T12:40:44.312Z,2416.00
2022-10-12T12:41:47.491Z,2416.00
2022-10-12T12:42:44.226Z,2432.00
2022-10-12T12:43:44.175Z,2440.00
2022-10-12T12:44:44.133Z,2464.00
2022-10-12T12:45:44.088Z,2508.00
2022-10-12T12:46:44.043Z,2548.00
2022-10-12T12:47:51.482Z,2568.00
2022-10-12T12:48:43.958Z,2568.00
2022-10-12T12:49:44.496Z,2600.00
2022-10-12T12:50:43.864Z,2596.00
2022-10-12T12:51:43.816Z,2600.00
2022-10-12T12:52:43.799Z,2604.00
2022-10-12T12:53:43.727Z,2572.00
2022-10-12T12:54:46.773Z,2556.00
2022-10-12T12:55:43.643Z,2532.00
2022-10-12T12:56:43.595Z,2540.00
2022-10-12T12:57:43.554Z,2620.00
2022-10-12T12:58:43.507Z,2628.00
2022-10-12T12:59:43.457Z,2656.00
2022-10-12T13:00:43.535Z,2668.00
2022-10-12T13:01:43.451Z,2556.00
2022-10-12T13:02:43.327Z,2416.00
2022-10-12T13:03:43.279Z,2328.00
2022-10-12T13:04:43.236Z,2272.00
2022-10-12T13:05:43.191Z,2272.00
2022-10-12T13:06:43.146Z,2348.00
2022-10-12T13:07:43.100Z,2220.00
2022-10-12T13:08:43.135Z,2160.00
2022-10-12T13:09:43.017Z,2128.00
2022-10-12T13:10:42.972Z,2092.00
2022-10-12T13:11:42.923Z,2036.00
2022-10-12T13:12:42.878Z,2076.00
2022-10-12T13:13:42.832Z,2124.00
2022-10-12T13:14:42.789Z,2188.00
2022-10-12T13:15:42.744Z,2228.00
2022-10-12T13:17:31.095Z,2220.00
2022-10-12T13:17:42.966Z,2192.00
2022-10-12T13:18:47.626Z,2176.00
2022-10-12T13:19:42.563Z,2164.00
2022-10-12T13:20:42.520Z,2204.00
2022-10-12T13:21:42.476Z,2328.00
2022-10-12T13:22:42.431Z,2440.00
2022-10-12T13:23:42.384Z,2428.00
2022-10-12T13:24:42.342Z,2440.00
2022-10-12T13:25:42.299Z,2468.00
2022-10-12T13:26:42.252Z,2604.00
2022-10-12T13:27:42.205Z,2716.00
2022-10-12T13:28:42.250Z,2820.00
2022-10-12T13:29:42.325Z,2828.00
2022-10-12T13:30:42.073Z,2792.00
2022-10-12T13:31:42.025Z,2812.00
2022-10-12T13:33:29.953Z,2860.00
2022-10-12T13:34:25.336Z,2864.00
2022-10-12T13:35:25.291Z,2892.00
2022-10-12T13:36:25.263Z,2932.00
2022-10-12T13:37:25.201Z,2864.00
2022-10-12T13:38:25.158Z,2752.00
2022-10-12T13:39:25.122Z,2700.00
2022-10-12T13:40:25.066Z,2664.00
2022-10-12T13:41:25.061Z,2636.00
2022-10-12T13:42:24.980Z,2608.00
2022-10-12T13:43:24.933Z,2572.00
2022-10-12T13:44:24.891Z,2540.00
2022-10-12T13:45:24.847Z,2504.00
2022-10-12T13:46:24.799Z,2476.00
2022-10-12T13:47:24.752Z,2448.00
2022-10-12T13:48:46.391Z,2416.00
2022-10-12T13:49:24.673Z,2376.00
2022-10-12T13:50:24.625Z,2336.00
2022-10-12T13:51:24.581Z,2304.00
2022-10-12T13:52:27.257Z,2276.00
2022-10-12T13:53:24.485Z,2252.00